sensor_id;sensor_type;location;lat;lon;timestamp;P1;durP1;ratioP1;P2;durP2;ratioP2
22201;SDS011;11266;51.522;6.302;2023-05-10T08:18:11;28.75;;;16.52;;
22201;SDS011;11266;51.522;6.302;2023-05-10T08:18:57;24.85;;;16.10;;
22201;SDS011;11266;51.522;6.302;2023-05-10T08:19:43;25.60;;;16.77;;
22201;SDS011;11266;51.522;6.302;2023-05-10T08:20:29;21.98;;;15.38;;
22201;SDS011;11266;51.522;6.302;2023-05-10T08:21:18;26.48;;;16.58;;
22201;SDS011;11266;51.522;6.302;2023-05-10T08:22:04;26.25;;;16.80;;
22201;SDS011;11266;51.522;6.302;2023-05-10T08:22:50;26.88;;;15.82;;
22201;SDS011;11266;51.522;6.302;2023-05-10T08:23:36;25.80;;;17.08;;
22201;SDS011;11266;51.522;6.302;2023-05-10T08:24:22;24.77;;;16.38;;
22201;SDS011;11266;51.522;6.302;2023-05-10T08:25:08;29.27;;;17.63;;
22201;SDS011;11266;51.522;6.302;2023-05-10T08:25:53;26.77;;;17.27;;
22201;SDS011;11266;51.522;6.302;2023-05-10T08:26:39;27.80;;;16.70;;
22201;SDS011;11266;51.522;6.302;2023-05-10T08:27:25;24.63;;;14.93;;
22201;SDS011;11266;51.522;6.302;2023-05-10T08:28:11;24.60;;;16.08;;
22201;SDS011;11266;51.522;6.302;2023-05-10T08:28:57;30.15;;;16.77;;
22201;SDS011;11266;51.522;6.302;2023-05-10T08:29:43;26.25;;;15.98;;
22201;SDS011;11266;51.522;6.302;2023-05-10T08:30:28;26.95;;;17.25;;
22201;SDS011;11266;51.522;6.302;2023-05-10T08:31:15;28.27;;;17.85;;
22201;SDS011;11266;51.522;6.302;2023-05-10T08:32:01;24.50;;;16.88;;
22201;SDS011;11266;51.522;6.302;2023-05-10T08:32:46;24.45;;;17.25;;
22201;SDS011;11266;51.522;6.302;2023-05-10T08:33:32;26.95;;;16.77;;
22201;SDS011;11266;51.522;6.302;2023-05-10T08:34:18;26.85;;;17.08;;
22201;SDS011;11266;51.522;6.302;2023-05-10T08:35:04;22.30;;;16.58;;
22201;SDS011;11266;51.522;6.302;2023-05-10T08:35:50;24.42;;;15.77;;
22201;SDS011;11266;51.522;6.302;2023-05-10T08:36:36;25.20;;;16.55;;
22201;SDS011;11266;51.522;6.302;2023-05-10T08:37:23;24.70;;;16.23;;
22201;SDS011;11266;51.522;6.302;2023-05-10T08:38:08;24.00;;;15.93;;
22201;SDS011;11266;51.522;6.302;2023-05-10T08:38:54;24.95;;;17.00;;
22201;SDS011;11266;51.522;6.302;2023-05-10T08:39:40;20.90;;;14.13;;
22201;SDS011;11266;51.522;6.302;2023-05-10T08:40:26;27.42;;;17.23;;
22201;SDS011;11266;51.522;6.302;2023-05-10T08:41:12;22.13;;;14.73;;
22201;SDS011;11266;51.522;6.302;2023-05-10T08:41:59;23.65;;;15.40;;
22201;SDS011;11266;51.522;6.302;2023-05-10T08:42:50;20.35;;;15.27;;
22201;SDS011;11266;51.522;6.302;2023-05-10T08:43:40;23.45;;;16.02;;
22201;SDS011;11266;51.522;6.302;2023-05-10T08:44:34;22.48;;;15.15;;
22201;SDS011;11266;51.522;6.302;2023-05-10T08:45:22;28.25;;;15.68;;
22201;SDS011;11266;51.522;6.302;2023-05-10T08:46:09;20.38;;;14.85;;
22201;SDS011;11266;51.522;6.302;2023-05-10T08:46:56;20.30;;;14.38;;
22201;SDS011;11266;51.522;6.302;2023-05-10T08:47:44;21.63;;;14.60;;
22201;SDS011;11266;51.522;6.302;2023-05-10T08:48:30;23.80;;;15.30;;
22201;SDS011;11266;51.522;6.302;2023-05-10T08:49:19;20.08;;;15.13;;
22201;SDS011;11266;51.522;6.302;2023-05-10T08:50:06;23.95;;;14.98;;
22201;SDS011;11266;51.522;6.302;2023-05-10T08:50:53;20.80;;;14.82;;
22201;SDS011;11266;51.522;6.302;2023-05-10T08:51:40;21.15;;;14.82;;
22201;SDS011;11266;51.522;6.302;2023-05-10T08:52:32;20.27;;;14.57;;
22201;SDS011;11266;51.522;6.302;2023-05-10T08:53:24;26.13;;;15.35;;
22201;SDS011;11266;51.522;6.302;2023-05-10T08:54:12;22.42;;;15.38;;
22201;SDS011;11266;51.522;6.302;2023-05-10T08:54:58;25.27;;;15.80;;
22201;SDS011;11266;51.522;6.302;2023-05-10T08:55:44;25.45;;;15.85;;
22201;SDS011;11266;51.522;6.302;2023-05-10T08:56:31;22.05;;;15.00;;
22201;SDS011;11266;51.522;6.302;2023-05-10T08:57:18;20.38;;;14.65;;
22201;SDS011;11266;51.522;6.302;2023-05-10T08:58:05;21.67;;;15.38;;
22201;SDS011;11266;51.522;6.302;2023-05-10T08:58:51;24.48;;;15.60;;
22201;SDS011;11266;51.522;6.302;2023-05-10T08:59:37;22.92;;;16.25;;
22201;SDS011;11266;51.522;6.302;2023-05-10T09:00:24;19.38;;;13.80;;
22201;SDS011;11266;51.522;6.302;2023-05-10T09:01:11;19.83;;;13.80;;
22201;SDS011;11266;51.522;6.302;2023-05-10T09:01:58;22.95;;;14.88;;
22201;SDS011;11266;51.522;6.302;2023-05-10T09:02:45;25.52;;;15.63;;
22201;SDS011;11266;51.522;6.302;2023-05-10T09:03:33;21.98;;;15.60;;
22201;SDS011;11266;51.522;6.302;2023-05-10T09:04:20;21.25;;;15.23;;
22201;SDS011;11266;51.522;6.302;2023-05-10T09:05:06;23.80;;;15.48;;
22201;SDS011;11266;51.522;6.302;2023-05-10T09:05:52;26.25;;;14.82;;
22201;SDS011;11266;51.522;6.302;2023-05-10T09:06:40;22.67;;;15.38;;
22201;SDS011;11266;51.522;6.302;2023-05-10T09:07:26;24.02;;;14.57;;
22201;SDS011;11266;51.522;6.302;2023-05-10T09:08:13;24.33;;;14.60;;
22201;SDS011;11266;51.522;6.302;2023-05-10T09:09:01;21.88;;;14.77;;
22201;SDS011;11266;51.522;6.302;2023-05-10T09:09:48;26.92;;;16.38;;
22201;SDS011;11266;51.522;6.302;2023-05-10T09:10:34;22.15;;;15.50;;
22201;SDS011;11266;51.522;6.302;2023-05-10T09:11:22;20.58;;;14.93;;
22201;SDS011;11266;51.522;6.302;2023-05-10T09:12:09;22.08;;;15.48;;
22201;SDS011;11266;51.522;6.302;2023-05-10T09:12:56;19.13;;;13.73;;
22201;SDS011;11266;51.522;6.302;2023-05-10T09:13:43;21.75;;;14.52;;
22201;SDS011;11266;51.522;6.302;2023-05-10T09:14:29;22.00;;;14.98;;
22201;SDS011;11266;51.522;6.302;2023-05-10T09:15:15;23.48;;;14.65;;
22201;SDS011;11266;51.522;6.302;2023-05-10T09:16:04;23.13;;;15.57;;
22201;SDS011;11266;51.522;6.302;2023-05-10T09:16:50;20.27;;;14.68;;
22201;SDS011;11266;51.522;6.302;2023-05-10T09:17:37;19.50;;;12.98;;
22201;SDS011;11266;51.522;6.302;2023-05-10T09:18:25;22.48;;;14.77;;
22201;SDS011;11266;51.522;6.302;2023-05-10T09:19:11;22.20;;;13.57;;
22201;SDS011;11266;51.522;6.302;2023-05-10T09:19:59;23.98;;;14.57;;
22201;SDS011;11266;51.522;6.302;2023-05-10T09:20:46;19.05;;;13.40;;
22201;SDS011;11266;51.522;6.302;2023-05-10T09:21:34;20.33;;;13.20;;
22201;SDS011;11266;51.522;6.302;2023-05-10T09:22:23;18.88;;;13.55;;
22201;SDS011;11266;51.522;6.302;2023-05-10T09:23:12;19.08;;;13.82;;
22201;SDS011;11266;51.522;6.302;2023-05-10T09:24:02;22.60;;;14.10;;
22201;SDS011;11266;51.522;6.302;2023-05-10T09:25:03;20.58;;;13.95;;
22201;SDS011;11266;51.522;6.302;2023-05-10T09:26:02;18.65;;;13.57;;
22201;SDS011;11266;51.522;6.302;2023-05-10T09:26:49;20.85;;;14.13;;
22201;SDS011;11266;51.522;6.302;2023-05-10T09:27:35;18.88;;;13.20;;
22201;SDS011;11266;51.522;6.302;2023-05-10T09:28:22;20.75;;;13.75;;
22201;SDS011;11266;51.522;6.302;2023-05-10T09:29:08;19.73;;;14.05;;
22201;SDS011;11266;51.522;6.302;2023-05-10T09:29:53;19.95;;;13.68;;
22201;SDS011;11266;51.522;6.302;2023-05-10T09:30:40;19.58;;;13.75;;
22201;SDS011;11266;51.522;6.302;2023-05-10T09:31:46;18.17;;;14.38;;
22201;SDS011;11266;51.522;6.302;2023-05-10T09:32:36;19.27;;;13.48;;
22201;SDS011;11266;51.522;6.302;2023-05-10T09:33:22;18.10;;;13.02;;
22201;SDS011;11266;51.522;6.302;2023-05-10T09:34:09;20.90;;;13.75;;
22201;SDS011;11266;51.522;6.302;2023-05-10T09:34:55;20.05;;;13.57;;
22201;SDS011;11266;51.522;6.302;2023-05-10T09:35:41;18.70;;;12.80;;
22201;SDS011;11266;51.522;6.302;2023-05-10T09:36:27;20.20;;;13.65;;
22201;SDS011;11266;51.522;6.302;2023-05-10T09:37:13;21.67;;;14.07;;
22201;SDS011;11266;51.522;6.302;2023-05-10T09:38:00;20.75;;;15.13;;
22201;SDS011;11266;51.522;6.302;2023-05-10T09:38:49;19.48;;;13.52;;
22201;SDS011;11266;51.522;6.302;2023-05-10T09:39:39;19.00;;;12.88;;
22201;SDS011;11266;51.522;6.302;2023-05-10T09:40:27;19.55;;;13.73;;
22201;SDS011;11266;51.522;6.302;2023-05-10T09:41:16;17.42;;;13.40;;
22201;SDS011;11266;51.522;6.302;2023-05-10T09:42:07;22.50;;;13.73;;
22201;SDS011;11266;51.522;6.302;2023-05-10T09:42:58;19.45;;;13.15;;
22201;SDS011;11266;51.522;6.302;2023-05-10T09:43:56;17.85;;;13.05;;
22201;SDS011;11266;51.522;6.302;2023-05-10T09:44:42;18.40;;;13.60;;
22201;SDS011;11266;51.522;6.302;2023-05-10T09:45:31;23.00;;;14.43;;
22201;SDS011;11266;51.522;6.302;2023-05-10T09:46:18;23.20;;;14.35;;
22201;SDS011;11266;51.522;6.302;2023-05-10T09:47:03;16.70;;;13.20;;
22201;SDS011;11266;51.522;6.302;2023-05-10T09:47:49;19.85;;;14.05;;
22201;SDS011;11266;51.522;6.302;2023-05-10T09:48:39;22.70;;;14.35;;
22201;SDS011;11266;51.522;6.302;2023-05-10T09:49:32;19.65;;;13.25;;
22201;SDS011;11266;51.522;6.302;2023-05-10T09:50:18;24.40;;;14.85;;
22201;SDS011;11266;51.522;6.302;2023-05-10T09:51:05;19.45;;;14.05;;
22201;SDS011;11266;51.522;6.302;2023-05-10T09:52:24;17.95;;;12.95;;
22201;SDS011;11266;51.522;6.302;2023-05-10T09:53:03;21.27;;;13.52;;
22201;SDS011;11266;51.522;6.302;2023-05-10T09:54:08;19.13;;;13.90;;
22201;SDS011;11266;51.522;6.302;2023-05-10T09:54:58;17.20;;;12.52;;
22201;SDS011;11266;51.522;6.302;2023-05-10T09:55:45;21.45;;;13.35;;
22201;SDS011;11266;51.522;6.302;2023-05-10T09:56:37;20.10;;;14.30;;
22201;SDS011;11266;51.522;6.302;2023-05-10T09:57:25;20.10;;;13.48;;
22201;SDS011;11266;51.522;6.302;2023-05-10T09:58:11;22.38;;;14.35;;
22201;SDS011;11266;51.522;6.302;2023-05-10T09:59:02;28.55;;;14.45;;
22201;SDS011;11266;51.522;6.302;2023-05-10T09:59:48;21.58;;;15.32;;
22201;SDS011;11266;51.522;6.302;2023-05-10T10:00:35;19.92;;;13.43;;
22201;SDS011;11266;51.522;6.302;2023-05-10T10:01:25;22.42;;;14.13;;
22201;SDS011;11266;51.522;6.302;2023-05-10T10:02:15;17.30;;;13.18;;
22201;SDS011;11266;51.522;6.302;2023-05-10T10:03:04;25.20;;;14.35;;
22201;SDS011;11266;51.522;6.302;2023-05-10T10:03:51;18.38;;;13.32;;
22201;SDS011;11266;51.522;6.302;2023-05-10T10:04:39;20.67;;;14.80;;
22201;SDS011;11266;51.522;6.302;2023-05-10T10:05:29;17.95;;;14.50;;
22201;SDS011;11266;51.522;6.302;2023-05-10T10:06:20;18.50;;;14.30;;
22201;SDS011;11266;51.522;6.302;2023-05-10T10:07:06;21.40;;;14.98;;
22201;SDS011;11266;51.522;6.302;2023-05-10T10:07:52;22.65;;;15.60;;
22201;SDS011;11266;51.522;6.302;2023-05-10T10:08:38;21.10;;;14.65;;
22201;SDS011;11266;51.522;6.302;2023-05-10T10:09:24;22.17;;;14.30;;
22201;SDS011;11266;51.522;6.302;2023-05-10T10:10:10;20.98;;;14.88;;
22201;SDS011;11266;51.522;6.302;2023-05-10T10:11:00;19.30;;;14.73;;
22201;SDS011;11266;51.522;6.302;2023-05-10T10:11:47;19.83;;;14.55;;
22201;SDS011;11266;51.522;6.302;2023-05-10T10:12:33;19.90;;;14.07;;
22201;SDS011;11266;51.522;6.302;2023-05-10T10:13:19;21.58;;;15.02;;
22201;SDS011;11266;51.522;6.302;2023-05-10T10:14:05;21.65;;;15.07;;
22201;SDS011;11266;51.522;6.302;2023-05-10T10:14:51;21.30;;;14.20;;
22201;SDS011;11266;51.522;6.302;2023-05-10T10:15:38;19.55;;;14.05;;
22201;SDS011;11266;51.522;6.302;2023-05-10T10:16:24;19.90;;;13.98;;
22201;SDS011;11266;51.522;6.302;2023-05-10T10:17:12;19.65;;;14.70;;
22201;SDS011;11266;51.522;6.302;2023-05-10T10:17:58;19.80;;;13.57;;
22201;SDS011;11266;51.522;6.302;2023-05-10T10:18:44;20.45;;;14.50;;
22201;SDS011;11266;51.522;6.302;2023-05-10T10:19:32;21.50;;;15.05;;
22201;SDS011;11266;51.522;6.302;2023-05-10T10:20:20;20.40;;;14.05;;
22201;SDS011;11266;51.522;6.302;2023-05-10T10:21:07;21.67;;;14.02;;
22201;SDS011;11266;51.522;6.302;2023-05-10T10:21:53;20.48;;;14.10;;
22201;SDS011;11266;51.522;6.302;2023-05-10T10:22:39;20.13;;;13.43;;
22201;SDS011;11266;51.522;6.302;2023-05-10T10:23:25;18.23;;;13.52;;
22201;SDS011;11266;51.522;6.302;2023-05-10T10:24:11;18.08;;;13.07;;
22201;SDS011;11266;51.522;6.302;2023-05-10T10:24:57;16.60;;;12.55;;
22201;SDS011;11266;51.522;6.302;2023-05-10T10:25:44;18.58;;;13.50;;
22201;SDS011;11266;51.522;6.302;2023-05-10T10:26:33;18.65;;;13.25;;
22201;SDS011;11266;51.522;6.302;2023-05-10T10:27:24;20.40;;;14.05;;
22201;SDS011;11266;51.522;6.302;2023-05-10T10:29:34;16.65;;;11.80;;
22201;SDS011;11266;51.522;6.302;2023-05-10T10:31:37;18.88;;;12.85;;
22201;SDS011;11266;51.522;6.302;2023-05-10T10:34:50;17.92;;;12.05;;
22201;SDS011;11266;51.522;6.302;2023-05-10T10:35:36;15.02;;;11.38;;
22201;SDS011;11266;51.522;6.302;2023-05-10T10:36:23;15.52;;;11.85;;
22201;SDS011;11266;51.522;6.302;2023-05-10T10:37:12;18.58;;;12.32;;
22201;SDS011;11266;51.522;6.302;2023-05-10T10:37:58;17.15;;;11.70;;
22201;SDS011;11266;51.522;6.302;2023-05-10T10:39:33;16.25;;;11.77;;
22201;SDS011;11266;51.522;6.302;2023-05-10T10:40:28;15.93;;;11.20;;
22201;SDS011;11266;51.522;6.302;2023-05-10T10:41:34;16.60;;;11.13;;
22201;SDS011;11266;51.522;6.302;2023-05-10T10:42:43;19.90;;;10.57;;
22201;SDS011;11266;51.522;6.302;2023-05-10T10:43:31;14.05;;;10.32;;
22201;SDS011;11266;51.522;6.302;2023-05-10T10:44:23;15.15;;;9.90;;
22201;SDS011;11266;51.522;6.302;2023-05-10T10:45:12;18.88;;;9.95;;
22201;SDS011;11266;51.522;6.302;2023-05-10T10:46:15;15.55;;;10.25;;
22201;SDS011;11266;51.522;6.302;2023-05-10T10:47:03;14.75;;;10.73;;
22201;SDS011;11266;51.522;6.302;2023-05-10T10:47:53;16.60;;;9.73;;
22201;SDS011;11266;51.522;6.302;2023-05-10T10:49:09;16.63;;;9.73;;
22201;SDS011;11266;51.522;6.302;2023-05-10T10:50:02;15.38;;;10.02;;
22201;SDS011;11266;51.522;6.302;2023-05-10T10:50:56;12.85;;;9.50;;
22201;SDS011;11266;51.522;6.302;2023-05-10T10:52:12;13.88;;;9.88;;
22201;SDS011;11266;51.522;6.302;2023-05-10T10:53:16;20.17;;;10.18;;
22201;SDS011;11266;51.522;6.302;2023-05-10T10:54:08;14.00;;;10.15;;
22201;SDS011;11266;51.522;6.302;2023-05-10T10:55:03;15.68;;;9.45;;
22201;SDS011;11266;51.522;6.302;2023-05-10T10:56:10;15.93;;;9.27;;
22201;SDS011;11266;51.522;6.302;2023-05-10T10:57:12;16.02;;;9.32;;
22201;SDS011;11266;51.522;6.302;2023-05-10T10:57:58;14.10;;;9.38;;
22201;SDS011;11266;51.522;6.302;2023-05-10T10:58:49;16.60;;;9.32;;
22201;SDS011;11266;51.522;6.302;2023-05-10T10:59:47;14.27;;;8.98;;
22201;SDS011;11266;51.522;6.302;2023-05-10T11:00:34;23.48;;;9.93;;
22201;SDS011;11266;51.522;6.302;2023-05-10T11:01:21;13.48;;;9.82;;
22201;SDS011;11266;51.522;6.302;2023-05-10T11:02:07;17.17;;;10.15;;
22201;SDS011;11266;51.522;6.302;2023-05-10T11:02:59;16.85;;;9.40;;
22201;SDS011;11266;51.522;6.302;2023-05-10T11:04:45;12.95;;;8.60;;
22201;SDS011;11266;51.522;6.302;2023-05-10T11:05:41;13.07;;;8.88;;
22201;SDS011;11266;51.522;6.302;2023-05-10T11:06:35;12.90;;;8.90;;
22201;SDS011;11266;51.522;6.302;2023-05-10T11:07:21;12.68;;;8.25;;
22201;SDS011;11266;51.522;6.302;2023-05-10T11:09:12;9.60;;;8.18;;
22201;SDS011;11266;51.522;6.302;2023-05-10T11:10:03;12.65;;;8.82;;
22201;SDS011;11266;51.522;6.302;2023-05-10T11:11:13;15.82;;;8.35;;
22201;SDS011;11266;51.522;6.302;2023-05-10T11:12:00;12.93;;;8.50;;
22201;SDS011;11266;51.522;6.302;2023-05-10T11:13:05;13.63;;;8.48;;
22201;SDS011;11266;51.522;6.302;2023-05-10T11:13:52;12.48;;;8.75;;
22201;SDS011;11266;51.522;6.302;2023-05-10T11:14:50;10.82;;;7.97;;
22201;SDS011;11266;51.522;6.302;2023-05-10T11:15:39;11.98;;;8.45;;
22201;SDS011;11266;51.522;6.302;2023-05-10T11:16:42;10.18;;;7.53;;
22201;SDS011;11266;51.522;6.302;2023-05-10T11:17:29;10.90;;;7.10;;
22201;SDS011;11266;51.522;6.302;2023-05-10T11:18:16;12.82;;;8.18;;
22201;SDS011;11266;51.522;6.302;2023-05-10T11:19:11;12.10;;;7.70;;
22201;SDS011;11266;51.522;6.302;2023-05-10T11:20:13;17.70;;;8.13;;
22201;SDS011;11266;51.522;6.302;2023-05-10T11:21:00;10.43;;;6.90;;
22201;SDS011;11266;51.522;6.302;2023-05-10T11:22:13;12.35;;;6.80;;
22201;SDS011;11266;51.522;6.302;2023-05-10T11:23:10;13.77;;;7.63;;
22201;SDS011;11266;51.522;6.302;2023-05-10T11:24:01;15.38;;;7.32;;
22201;SDS011;11266;51.522;6.302;2023-05-10T11:24:58;9.32;;;6.82;;
22201;SDS011;11266;51.522;6.302;2023-05-10T11:25:45;12.05;;;7.97;;
22201;SDS011;11266;51.522;6.302;2023-05-10T11:26:35;15.80;;;7.75;;
22201;SDS011;11266;51.522;6.302;2023-05-10T11:27:22;9.43;;;7.18;;
22201;SDS011;11266;51.522;6.302;2023-05-10T11:28:07;15.18;;;6.75;;
22201;SDS011;11266;51.522;6.302;2023-05-10T11:28:53;11.23;;;6.10;;
22201;SDS011;11266;51.522;6.302;2023-05-10T11:29:44;13.63;;;7.57;;
22201;SDS011;11266;51.522;6.302;2023-05-10T11:30:30;11.63;;;7.32;;
22201;SDS011;11266;51.522;6.302;2023-05-10T11:31:16;11.77;;;6.90;;
22201;SDS011;11266;51.522;6.302;2023-05-10T11:32:03;11.48;;;6.18;;
22201;SDS011;11266;51.522;6.302;2023-05-10T11:32:53;14.70;;;7.13;;
22201;SDS011;11266;51.522;6.302;2023-05-10T11:33:42;11.18;;;7.32;;
22201;SDS011;11266;51.522;6.302;2023-05-10T11:34:46;9.80;;;6.35;;
22201;SDS011;11266;51.522;6.302;2023-05-10T11:35:38;9.10;;;5.93;;
22201;SDS011;11266;51.522;6.302;2023-05-10T11:36:29;10.68;;;6.30;;
22201;SDS011;11266;51.522;6.302;2023-05-10T11:37:18;10.82;;;6.90;;
22201;SDS011;11266;51.522;6.302;2023-05-10T11:38:07;15.82;;;6.00;;
22201;SDS011;11266;51.522;6.302;2023-05-10T11:38:54;8.07;;;5.97;;
22201;SDS011;11266;51.522;6.302;2023-05-10T11:39:45;10.73;;;6.57;;
22201;SDS011;11266;51.522;6.302;2023-05-10T11:40:32;14.80;;;6.30;;
22201;SDS011;11266;51.522;6.302;2023-05-10T11:41:18;8.35;;;6.43;;
22201;SDS011;11266;51.522;6.302;2023-05-10T11:42:08;9.65;;;6.85;;
22201;SDS011;11266;51.522;6.302;2023-05-10T11:42:55;9.60;;;6.25;;
22201;SDS011;11266;51.522;6.302;2023-05-10T11:43:41;13.32;;;7.45;;
22201;SDS011;11266;51.522;6.302;2023-05-10T11:44:31;13.98;;;6.90;;
22201;SDS011;11266;51.522;6.302;2023-05-10T11:45:17;7.95;;;5.60;;
22201;SDS011;11266;51.522;6.302;2023-05-10T11:46:06;12.02;;;6.75;;
22201;SDS011;11266;51.522;6.302;2023-05-10T11:47:00;15.20;;;6.28;;
22201;SDS011;11266;51.522;6.302;2023-05-10T11:47:48;12.70;;;6.20;;
22201;SDS011;11266;51.522;6.302;2023-05-10T11:48:34;9.50;;;6.25;;
22201;SDS011;11266;51.522;6.302;2023-05-10T11:49:20;11.63;;;6.88;;
22201;SDS011;11266;51.522;6.302;2023-05-10T11:50:10;9.57;;;5.90;;
22201;SDS011;11266;51.522;6.302;2023-05-10T11:50:56;8.98;;;5.80;;
22201;SDS011;11266;51.522;6.302;2023-05-10T11:51:43;15.32;;;6.03;;
22201;SDS011;11266;51.522;6.302;2023-05-10T11:52:28;7.85;;;5.03;;
22201;SDS011;11266;51.522;6.302;2023-05-10T11:53:14;8.68;;;5.57;;
22201;SDS011;11266;51.522;6.302;2023-05-10T11:54:04;10.65;;;5.55;;
22201;SDS011;11266;51.522;6.302;2023-05-10T11:54:53;8.02;;;5.38;;
22201;SDS011;11266;51.522;6.302;2023-05-10T11:55:39;10.25;;;5.45;;
22201;SDS011;11266;51.522;6.302;2023-05-10T11:56:25;10.18;;;5.13;;
22201;SDS011;11266;51.522;6.302;2023-05-10T11:57:11;9.30;;;5.32;;
22201;SDS011;11266;51.522;6.302;2023-05-10T11:58:00;10.40;;;5.45;;
22201;SDS011;11266;51.522;6.302;2023-05-10T11:58:52;9.98;;;5.60;;
22201;SDS011;11266;51.522;6.302;2023-05-10T11:59:39;11.43;;;5.30;;
22201;SDS011;11266;51.522;6.302;2023-05-10T12:00:25;10.90;;;5.63;;
22201;SDS011;11266;51.522;6.302;2023-05-10T12:01:11;10.85;;;5.00;;
22201;SDS011;11266;51.522;6.302;2023-05-10T12:01:57;8.45;;;5.18;;
22201;SDS011;11266;51.522;6.302;2023-05-10T12:02:43;9.80;;;5.07;;
22201;SDS011;11266;51.522;6.302;2023-05-10T12:03:29;12.10;;;5.65;;
22201;SDS011;11266;51.522;6.302;2023-05-10T12:04:15;13.35;;;6.05;;
22201;SDS011;11266;51.522;6.302;2023-05-10T12:05:02;11.38;;;5.60;;
22201;SDS011;11266;51.522;6.302;2023-05-10T12:05:50;13.07;;;5.50;;
22201;SDS011;11266;51.522;6.302;2023-05-10T12:06:37;12.48;;;5.18;;
22201;SDS011;11266;51.522;6.302;2023-05-10T12:07:26;10.68;;;4.80;;
22201;SDS011;11266;51.522;6.302;2023-05-10T12:08:15;7.50;;;4.60;;
22201;SDS011;11266;51.522;6.302;2023-05-10T12:09:05;11.75;;;5.47;;
22201;SDS011;11266;51.522;6.302;2023-05-10T12:10:12;9.85;;;4.95;;
22201;SDS011;11266;51.522;6.302;2023-05-10T12:11:06;8.15;;;4.70;;
22201;SDS011;11266;51.522;6.302;2023-05-10T12:11:55;12.25;;;5.05;;
22201;SDS011;11266;51.522;6.302;2023-05-10T12:12:43;12.18;;;5.03;;
22201;SDS011;11266;51.522;6.302;2023-05-10T12:13:30;9.63;;;4.60;;
22201;SDS011;11266;51.522;6.302;2023-05-10T12:14:16;12.32;;;4.97;;
22201;SDS011;11266;51.522;6.302;2023-05-10T12:15:02;8.63;;;5.07;;
22201;SDS011;11266;51.522;6.302;2023-05-10T12:15:48;9.13;;;5.35;;
22201;SDS011;11266;51.522;6.302;2023-05-10T12:16:35;10.25;;;5.93;;
22201;SDS011;11266;51.522;6.302;2023-05-10T12:17:21;7.93;;;4.97;;
22201;SDS011;11266;51.522;6.302;2023-05-10T12:18:10;8.95;;;4.90;;
22201;SDS011;11266;51.522;6.302;2023-05-10T12:18:57;8.40;;;4.93;;
22201;SDS011;11266;51.522;6.302;2023-05-10T12:19:45;7.10;;;4.47;;
22201;SDS011;11266;51.522;6.302;2023-05-10T12:20:31;7.40;;;4.55;;
22201;SDS011;11266;51.522;6.302;2023-05-10T12:21:17;9.80;;;5.05;;
22201;SDS011;11266;51.522;6.302;2023-05-10T12:22:05;8.02;;;4.00;;
22201;SDS011;11266;51.522;6.302;2023-05-10T12:22:51;8.63;;;4.20;;
22201;SDS011;11266;51.522;6.302;2023-05-10T12:23:39;7.25;;;4.53;;
22201;SDS011;11266;51.522;6.302;2023-05-10T12:24:25;8.38;;;4.20;;
22201;SDS011;11266;51.522;6.302;2023-05-10T12:25:11;6.55;;;4.13;;
22201;SDS011;11266;51.522;6.302;2023-05-10T12:26:01;8.05;;;4.18;;
22201;SDS011;11266;51.522;6.302;2023-05-10T12:26:49;8.93;;;4.28;;
22201;SDS011;11266;51.522;6.302;2023-05-10T12:27:35;5.95;;;4.07;;
22201;SDS011;11266;51.522;6.302;2023-05-10T12:28:21;7.05;;;4.25;;
22201;SDS011;11266;51.522;6.302;2023-05-10T12:29:59;8.93;;;4.75;;
22201;SDS011;11266;51.522;6.302;2023-05-10T12:30:53;7.43;;;3.90;;
22201;SDS011;11266;51.522;6.302;2023-05-10T12:31:52;8.02;;;4.07;;
22201;SDS011;11266;51.522;6.302;2023-05-10T12:32:43;7.55;;;3.95;;
22201;SDS011;11266;51.522;6.302;2023-05-10T12:33:35;8.13;;;4.20;;
22201;SDS011;11266;51.522;6.302;2023-05-10T12:35:15;6.80;;;4.45;;
22201;SDS011;11266;51.522;6.302;2023-05-10T12:36:01;5.43;;;3.80;;
22201;SDS011;11266;51.522;6.302;2023-05-10T12:36:49;7.13;;;4.40;;
22201;SDS011;11266;51.522;6.302;2023-05-10T12:37:37;7.93;;;5.03;;
22201;SDS011;11266;51.522;6.302;2023-05-10T12:38:33;7.95;;;4.30;;
22201;SDS011;11266;51.522;6.302;2023-05-10T12:39:24;12.40;;;4.00;;
22201;SDS011;11266;51.522;6.302;2023-05-10T12:40:10;8.60;;;4.25;;
22201;SDS011;11266;51.522;6.302;2023-05-10T12:40:57;9.10;;;4.30;;
22201;SDS011;11266;51.522;6.302;2023-05-10T12:41:44;8.65;;;4.53;;
22201;SDS011;11266;51.522;6.302;2023-05-10T12:42:30;11.63;;;4.53;;
22201;SDS011;11266;51.522;6.302;2023-05-10T12:43:16;14.55;;;5.03;;
22201;SDS011;11266;51.522;6.302;2023-05-10T12:44:02;9.38;;;4.82;;
22201;SDS011;11266;51.522;6.302;2023-05-10T12:44:48;10.70;;;4.80;;
22201;SDS011;11266;51.522;6.302;2023-05-10T12:45:33;14.23;;;5.30;;
22201;SDS011;11266;51.522;6.302;2023-05-10T12:46:20;5.90;;;4.38;;
22201;SDS011;11266;51.522;6.302;2023-05-10T12:47:13;7.95;;;4.88;;
22201;SDS011;11266;51.522;6.302;2023-05-10T12:47:59;8.02;;;5.05;;
22201;SDS011;11266;51.522;6.302;2023-05-10T12:48:45;11.43;;;4.72;;
22201;SDS011;11266;51.522;6.302;2023-05-10T12:49:34;8.23;;;4.93;;
22201;SDS011;11266;51.522;6.302;2023-05-10T12:50:20;10.30;;;5.07;;
22201;SDS011;11266;51.522;6.302;2023-05-10T12:51:06;14.70;;;6.00;;
22201;SDS011;11266;51.522;6.302;2023-05-10T12:51:57;16.20;;;5.95;;
22201;SDS011;11266;51.522;6.302;2023-05-10T12:52:43;19.50;;;5.95;;
22201;SDS011;11266;51.522;6.302;2023-05-10T12:53:28;24.83;;;7.30;;
22201;SDS011;11266;51.522;6.302;2023-05-10T12:54:14;9.63;;;5.90;;
22201;SDS011;11266;51.522;6.302;2023-05-10T12:55:00;13.52;;;5.90;;
22201;SDS011;11266;51.522;6.302;2023-05-10T12:55:47;12.27;;;6.95;;
22201;SDS011;11266;51.522;6.302;2023-05-10T12:56:33;11.70;;;6.00;;
22201;SDS011;11266;51.522;6.302;2023-05-10T12:57:21;11.20;;;5.25;;
22201;SDS011;11266;51.522;6.302;2023-05-10T12:58:07;10.10;;;6.07;;
22201;SDS011;11266;51.522;6.302;2023-05-10T12:58:53;12.07;;;5.47;;
22201;SDS011;11266;51.522;6.302;2023-05-10T12:59:39;12.43;;;5.55;;
22201;SDS011;11266;51.522;6.302;2023-05-10T13:00:25;8.93;;;5.65;;
22201;SDS011;11266;51.522;6.302;2023-05-10T13:01:11;11.82;;;5.70;;
22201;SDS011;11266;51.522;6.302;2023-05-10T13:01:57;13.65;;;6.07;;
22201;SDS011;11266;51.522;6.302;2023-05-10T13:02:42;12.30;;;5.13;;
22201;SDS011;11266;51.522;6.302;2023-05-10T13:03:28;8.00;;;5.75;;
22201;SDS011;11266;51.522;6.302;2023-05-10T13:04:14;11.60;;;6.80;;
22201;SDS011;11266;51.522;6.302;2023-05-10T13:05:00;11.77;;;6.30;;
22201;SDS011;11266;51.522;6.302;2023-05-10T13:05:46;10.88;;;5.78;;
22201;SDS011;11266;51.522;6.302;2023-05-10T13:06:32;11.77;;;5.97;;
22201;SDS011;11266;51.522;6.302;2023-05-10T13:07:18;8.50;;;5.75;;
22201;SDS011;11266;51.522;6.302;2023-05-10T13:08:03;7.78;;;5.75;;
22201;SDS011;11266;51.522;6.302;2023-05-10T13:08:49;9.45;;;5.93;;
22201;SDS011;11266;51.522;6.302;2023-05-10T13:09:36;9.10;;;6.22;;
22201;SDS011;11266;51.522;6.302;2023-05-10T13:10:21;11.98;;;5.85;;
22201;SDS011;11266;51.522;6.302;2023-05-10T13:11:08;8.13;;;5.63;;
22201;SDS011;11266;51.522;6.302;2023-05-10T13:11:54;12.15;;;6.35;;
22201;SDS011;11266;51.522;6.302;2023-05-10T13:12:40;10.07;;;5.65;;
22201;SDS011;11266;51.522;6.302;2023-05-10T13:13:26;10.50;;;6.32;;
22201;SDS011;11266;51.522;6.302;2023-05-10T13:14:11;8.38;;;5.78;;
22201;SDS011;11266;51.522;6.302;2023-05-10T13:14:58;9.55;;;5.85;;
22201;SDS011;11266;51.522;6.302;2023-05-10T13:15:44;9.20;;;5.90;;